Time;durP1;ratioP1;P1;durP2;ratioP2;P2;SDS_P1;SDS_P2;PMS_P1;PMS_P2;Temp;Humidity;BMP_temperature;BMP_pressure;BME280_temperature;BME280_humidity;BME280_pressure;Samples;Min_cycle;Max_cycle;Signal;HPM_P1;HPM_P2
2022/05/11 00:02:25;;;;;;;7.22;6.63;;;;;;;15.47;74.47;95740.66;5047274;28;20189;-78
2022/05/11 00:04:50;;;;;;;7.88;6.78;;;;;;;15.42;74.59;95741.16;5025902;28;20198;-78
2022/05/11 00:07:15;;;;;;;7.15;6.55;;;;;;;15.42;74.41;95746.38;5038755;28;20178;-78
2022/05/11 00:09:40;;;;;;;7.45;6.85;;;;;;;15.42;74.65;95740.34;5047007;28;20188;-78
2022/05/11 00:12:07;;;;;;;8.20;7.20;;;;;;;15.40;74.49;95737.91;5016891;28;20203;-78
2022/05/11 00:14:33;;;;;;;6.82;6.22;;;;;;;15.45;74.39;95740.78;5026252;28;20198;-78
2022/05/11 00:16:59;;;;;;;7.30;6.68;;;;;;;15.44;74.20;95733.94;5022693;28;20206;-78
2022/05/11 00:19:25;;;;;;;7.30;6.53;;;;;;;15.44;74.22;95733.94;5039856;28;20175;-78
2022/05/11 00:21:50;;;;;;;8.15;6.40;;;;;;;15.48;73.94;95730.00;5048467;28;20197;-78
2022/05/11 00:24:16;;;;;;;6.68;6.07;;;;;;;15.52;73.55;95730.47;5009667;28;20536;-78
2022/05/11 00:26:41;;;;;;;6.60;5.93;;;;;;;15.53;73.22;95732.91;5028065;28;20209;-78
2022/05/11 00:29:06;;;;;;;7.55;6.07;;;;;;;15.66;73.08;95726.31;5021878;28;20194;-78
2022/05/11 00:31:32;;;;;;;7.18;6.47;;;;;;;15.63;72.55;95722.22;5007204;28;20243;-78
2022/05/11 00:33:58;;;;;;;7.63;6.05;;;;;;;15.66;72.52;95727.13;5005945;28;20290;-78
2022/05/11 00:36:24;;;;;;;6.82;6.22;;;;;;;15.62;72.42;95730.25;5005043;28;20701;-77
2022/05/11 00:38:49;;;;;;;6.72;6.03;;;;;;;15.66;72.31;95721.09;5004217;28;20206;-78
2022/05/11 00:41:15;;;;;;;7.40;6.10;;;;;;;15.69;71.68;95725.97;5021710;28;20178;-77
2022/05/11 00:43:43;;;;;;;6.47;5.50;;;;;;;15.57;72.04;95720.28;5057762;28;20174;-77
2022/05/11 00:46:18;;;;;;;6.47;5.90;;;;;;;15.49;72.31;95721.16;5004651;28;20194;-78
2022/05/11 00:51:39;;;;;;;7.70;5.22;;;;;;;15.49;71.87;95710.69;5003293;28;20214;-77
2022/05/11 00:54:05;;;;;;;6.53;5.93;;;;;;;15.41;72.08;95713.34;5004270;28;20248;-77
2022/05/11 00:56:32;;;;;;;8.23;5.95;;;;;;;15.32;72.31;95705.72;5020794;28;20195;-77
2022/05/11 00:59:02;;;;;;;5.90;5.40;;;;;;;15.28;72.69;95700.00;5021109;28;20185;-78
2022/05/11 01:01:27;;;;;;;7.38;6.35;;;;;;;15.29;72.22;95707.72;5023808;28;20181;-77
2022/05/11 01:04:04;;;;;;;5.85;5.35;;;;;;;15.22;72.58;95703.34;5022736;28;20669;-78
2022/05/11 01:06:30;;;;;;;5.97;5.47;;;;;;;15.18;72.74;95702.03;5026392;28;20205;-77
2022/05/11 01:08:58;;;;;;;6.47;5.88;;;;;;;15.16;72.93;95699.59;5007987;28;20190;-78
2022/05/11 01:11:23;;;;;;;6.00;5.40;;;;;;;15.20;72.96;95705.31;5005839;28;20219;-78
2022/05/11 01:13:49;;;;;;;6.15;5.53;;;;;;;15.13;72.71;95702.56;5008160;28;20202;-78
2022/05/11 01:16:14;;;;;;;5.65;5.20;;;;;;;15.13;72.71;95705.19;5008771;28;20203;-78
2022/05/11 01:18:40;;;;;;;6.20;5.70;;;;;;;15.10;72.82;95695.03;5025948;28;20213;-78
2022/05/11 01:21:07;;;;;;;6.37;5.87;;;;;;;15.00;73.20;95704.91;5037990;28;20206;-78
2022/05/11 01:23:44;;;;;;;7.00;5.33;;;;;;;15.09;72.83;95697.84;5021428;28;20270;-78
2022/05/11 01:26:10;;;;;;;6.13;5.50;;;;;;;15.05;72.87;95696.56;5010398;28;20206;-77
2022/05/11 01:28:47;;;;;;;6.57;5.67;;;;;;;15.00;73.29;95694.44;5037703;28;20657;-78
2022/05/11 01:31:15;;;;;;;5.70;5.20;;;;;;;15.07;72.89;95697.19;5045256;28;20194;-78
2022/05/11 01:33:42;;;;;;;5.88;5.38;;;;;;;15.04;72.87;95695.75;5042891;28;20204;-78
2022/05/11 01:36:28;;;;;;;7.28;5.82;;;;;;;15.10;73.04;95694.22;5045046;28;20198;-78
2022/05/11 01:39:02;;;;;;;6.87;5.70;;;;;;;15.02;72.84;95692.50;5005130;28;20198;-78
2022/05/11 01:41:49;;;;;;;5.60;5.15;;;;;;;15.00;73.39;95697.88;5005069;28;20182;-78
2022/05/11 01:44:17;;;;;;;5.72;5.22;;;;;;;14.95;73.67;95696.78;5027374;28;20185;-78
2022/05/11 01:46:48;;;;;;;6.13;5.63;;;;;;;14.96;73.22;95699.22;5024792;28;20224;-78
2022/05/11 01:49:14;;;;;;;5.82;5.40;;;;;;;14.90;73.99;95689.44;5009045;28;20246;-78
2022/05/11 01:51:39;;;;;;;6.00;5.50;;;;;;;14.96;73.57;95688.75;5024433;28;20249;-78
2022/05/11 01:54:04;;;;;;;6.53;5.60;;;;;;;14.86;73.93;95690.78;5024938;28;20300;-78
2022/05/11 01:56:31;;;;;;;7.03;6.43;;;;;;;14.84;73.89;95695.38;5024526;28;20213;-78
2022/05/11 01:58:56;;;;;;;5.90;5.40;;;;;;;14.91;74.04;95685.81;5024827;28;20186;-78
2022/05/11 02:01:25;;;;;;;6.00;5.50;;;;;;;14.92;73.89;95687.44;5044159;28;20196;-78
2022/05/11 02:03:50;;;;;;;6.63;5.93;;;;;;;14.82;74.51;95693.88;5039663;28;20197;-78
2022/05/11 02:09:00;;;;;;;5.90;5.40;;;;;;;14.88;74.25;95686.19;5030963;28;20205;-78
2022/05/11 02:11:26;;;;;;;7.00;5.60;;;;;;;14.77;74.94;95689.19;5000173;28;20202;-77
2022/05/11 02:13:51;;;;;;;6.53;5.93;;;;;;;14.71;75.39;95688.03;5000293;28;20230;-77
2022/05/11 02:16:16;;;;;;;7.77;6.70;;;;;;;14.69;75.50;95687.41;5014481;28;20212;-78
2022/05/11 02:18:42;;;;;;;7.00;5.55;;;;;;;14.76;75.01;95690.16;5018490;28;20182;-77
2022/05/11 02:21:07;;;;;;;7.10;6.50;;;;;;;14.76;75.02;95684.13;5002180;28;20675;-78
2022/05/11 02:23:34;;;;;;;6.67;5.97;;;;;;;14.72;75.44;95684.44;5004794;28;20198;-78
2022/05/11 02:25:59;;;;;;;6.50;6.00;;;;;;;14.64;75.84;95686.28;5026241;28;20202;-78
2022/05/11 02:28:24;;;;;;;6.70;6.10;;;;;;;14.62;75.74;95680.41;5027843;28;20178;-78
2022/05/11 02:30:53;;;;;;;6.23;5.67;;;;;;;14.56;76.26;95681.06;5041420;28;20256;-77
2022/05/11 02:33:19;;;;;;;6.40;5.90;;;;;;;14.57;76.07;95682.69;5023979;28;20190;-77
2022/05/11 02:35:44;;;;;;;6.60;6.00;;;;;;;14.57;76.30;95680.91;5043099;28;20289;-78
2022/05/11 02:38:13;;;;;;;6.67;5.97;;;;;;;14.54;76.16;95686.47;5041925;28;20206;-78
2022/05/11 02:40:40;;;;;;;6.50;5.80;;;;;;;14.60;76.09;95682.38;5044282;28;20643;-78
2022/05/11 02:43:06;;;;;;;6.63;5.30;;;;;;;14.67;75.92;95678.13;5043321;28;20233;-78
2022/05/11 02:45:32;;;;;;;6.37;5.60;;;;;;;14.61;76.02;95679.59;5006066;28;20202;-78
2022/05/11 02:48:00;;;;;;;6.60;6.00;;;;;;;14.57;76.04;95683.50;5023955;28;20237;-78
2022/05/11 02:50:32;;;;;;;6.70;6.10;;;;;;;14.60;76.01;95682.38;5007976;28;20190;-78
2022/05/11 02:52:58;;;;;;;7.23;6.20;;;;;;;14.51;76.23;95684.22;5007678;28;20179;-78
2022/05/11 02:55:23;;;;;;;7.30;6.10;;;;;;;14.50;76.45;95681.78;5025253;28;20224;-78
2022/05/11 02:57:49;;;;;;;6.30;5.70;;;;;;;14.51;76.22;95678.16;5026410;28;20232;-78
2022/05/11 03:00:17;;;;;;;6.13;5.63;;;;;;;14.44;76.67;95684.03;5024959;28;20190;-78
2022/05/11 03:02:43;;;;;;;6.47;5.87;;;;;;;14.44;76.66;95678.81;5012000;28;20174;-78
2022/05/11 03:05:11;;;;;;;6.80;6.10;;;;;;;14.43;76.81;95677.16;5006293;28;20216;-78
2022/05/11 03:07:37;;;;;;;6.23;5.63;;;;;;;14.38;76.97;95671.63;5006279;28;20183;-78
2022/05/11 03:10:02;;;;;;;7.17;6.03;;;;;;;14.40;76.88;95677.53;5007627;28;20198;-78
2022/05/11 03:12:27;;;;;;;7.10;6.00;;;;;;;14.36;77.12;95676.22;5052512;28;20205;-78
2022/05/11 03:14:53;;;;;;;6.93;6.23;;;;;;;14.36;77.09;95664.94;5024467;28;20233;-78
2022/05/11 03:17:19;;;;;;;7.87;5.97;;;;;;;14.32;77.31;95676.72;5012445;28;20605;-78
2022/05/11 03:19:44;;;;;;;7.10;6.50;;;;;;;14.33;77.44;95679.16;5004096;28;20202;-78
2022/05/11 03:22:10;;;;;;;6.73;6.13;;;;;;;14.41;77.14;95676.53;5031359;28;20297;-78
2022/05/11 03:24:35;;;;;;;6.70;6.10;;;;;;;14.41;77.15;95678.34;5006142;28;20338;-78
2022/05/11 03:27:00;;;;;;;6.33;5.73;;;;;;;14.38;77.38;95676.84;5029994;28;20190;-78
2022/05/11 03:29:26;;;;;;;7.60;6.20;;;;;;;14.36;77.28;95667.56;5043214;28;20640;-78
2022/05/11 03:34:38;;;;;;;6.20;5.70;;;;;;;14.33;77.46;95670.50;5046050;28;20197;-78
2022/05/11 03:37:11;;;;;;;7.27;6.33;;;;;;;14.35;77.52;95674.59;5017898;28;20187;-78
2022/05/11 03:39:37;;;;;;;6.77;6.10;;;;;;;14.27;77.88;95661.53;5024709;28;20185;-78
2022/05/11 03:42:04;;;;;;;6.20;5.70;;;;;;;14.38;77.51;95670.81;5040655;28;20179;-78
2022/05/11 03:44:29;;;;;;;7.40;6.60;;;;;;;14.32;77.83;95659.25;5039503;28;20179;-77
2022/05/11 03:46:54;;;;;;;6.87;6.23;;;;;;;14.32;77.90;95663.66;5041244;28;20193;-77
2022/05/11 03:49:21;;;;;;;9.90;6.53;;;;;;;14.29;78.13;95661.38;5040553;28;20197;-78
2022/05/11 03:51:47;;;;;;;7.30;6.70;;;;;;;14.33;77.37;95660.88;5042104;28;20247;-79
2022/05/11 03:54:12;;;;;;;7.80;6.30;;;;;;;14.43;77.87;95658.88;5044073;28;20216;-77
2022/05/11 03:56:37;;;;;;;7.03;6.17;;;;;;;14.42;77.36;95653.84;5032143;28;20625;-77
2022/05/11 03:59:03;;;;;;;6.37;5.77;;;;;;;14.41;77.77;95663.47;5023871;28;20174;-78
2022/05/11 04:01:28;;;;;;;7.00;6.30;;;;;;;14.47;77.43;95661.19;5025500;28;20183;-79
2022/05/11 04:03:53;;;;;;;7.17;6.03;;;;;;;14.54;77.04;95654.31;5026841;28;20183;-78
2022/05/11 04:06:18;;;;;;;6.80;6.20;;;;;;;14.60;76.76;95666.69;5007785;28;20222;-79
2022/05/11 04:08:44;;;;;;;7.27;6.53;;;;;;;14.48;77.27;95657.59;5048456;28;20267;-78
2022/05/11 04:11:11;;;;;;;7.13;6.43;;;;;;;14.46;77.29;95665.59;5021822;28;20202;-76
2022/05/11 04:13:36;;;;;;;6.93;6.33;;;;;;;14.56;77.10;95657.56;5023510;28;20186;-76
2022/05/11 04:16:01;;;;;;;6.30;5.80;;;;;;;14.60;76.99;95651.84;5036655;28;20217;-78
2022/05/11 04:18:27;;;;;;;6.83;5.67;;;;;;;14.66;76.45;95652.94;5036132;28;20195;-78
2022/05/11 04:20:52;;;;;;;6.53;5.87;;;;;;;14.72;76.22;95650.47;5010540;28;20209;-76
2022/05/11 04:23:17;;;;;;;6.27;5.60;;;;;;;14.82;75.60;95655.47;5046729;28;20181;-78
2022/05/11 04:25:43;;;;;;;5.90;5.30;;;;;;;14.91;75.31;95653.63;5064910;28;20213;-78
2022/05/11 04:28:12;;;;;;;6.60;6.00;;;;;;;14.98;74.87;95650.16;5046992;28;20220;-78
2022/05/11 04:30:38;;;;;;;5.90;5.40;;;;;;;15.10;74.26;95655.81;5048602;28;20586;-78
2022/05/11 04:33:04;;;;;;;7.17;5.60;;;;;;;15.09;74.45;95656.00;5030529;28;20608;-78
2022/05/11 04:35:34;;;;;;;5.77;5.17;;;;;;;15.12;74.00;95653.06;5008572;28;20222;-78
2022/05/11 04:38:00;;;;;;;6.17;5.50;;;;;;;15.17;73.54;95658.56;5042851;28;20182;-78
2022/05/11 04:40:27;;;;;;;6.67;5.90;;;;;;;15.12;73.77;95663.50;5000805;28;20191;-77
2022/05/11 04:42:52;;;;;;;7.10;6.27;;;;;;;15.28;73.43;95656.38;5017643;28;20197;-77
2022/05/11 04:45:18;;;;;;;7.33;5.70;;;;;;;15.52;71.94;95658.00;5029946;28;20690;-77
2022/05/11 04:47:43;;;;;;;6.33;5.83;;;;;;;15.90;70.80;95658.03;5024348;28;20250;-77
2022/05/11 04:50:10;;;;;;;5.93;5.43;;;;;;;16.50;68.28;95661.53;5005413;28;20183;-77
2022/05/11 04:52:36;;;;;;;6.10;5.60;;;;;;;17.16;65.73;95663.19;5002126;28;20219;-79
2022/05/11 04:55:02;;;;;;;6.63;5.40;;;;;;;19.23;58.37;95667.09;5022856;28;20209;-78
2022/05/11 04:57:28;;;;;;;5.55;5.05;;;;;;;20.70;53.65;95663.50;5025544;28;20178;-78
2022/05/11 04:59:53;;;;;;;5.70;5.20;;;;;;;21.02;51.19;95667.84;5017352;28;20181;-77
2022/05/11 05:02:22;;;;;;;4.97;4.47;;;;;;;21.81;49.66;95666.59;5038429;28;20182;-78
2022/05/11 05:04:48;;;;;;;4.40;4.00;;;;;;;22.25;47.28;95668.31;5021708;28;20225;-78
2022/05/11 05:07:13;;;;;;;5.47;4.57;;;;;;;22.49;46.50;95668.50;5024142;28;20181;-76
2022/05/11 05:09:38;;;;;;;4.75;4.35;;;;;;;23.04;45.37;95671.19;5037059;28;20182;-77
2022/05/11 05:12:05;;;;;;;4.75;4.32;;;;;;;23.62;44.35;95673.31;5021338;28;20198;-76
2022/05/11 05:14:30;;;;;;;4.97;3.95;;;;;;;23.46;43.93;95669.44;5047675;28;20212;-77
2022/05/11 05:17:03;;;;;;;4.43;4.13;;;;;;;24.44;42.16;95670.81;5018692;28;20235;-77
2022/05/11 05:19:29;;;;;;;4.97;4.57;;;;;;;25.03;40.35;95676.91;5004468;28;20551;-78
2022/05/11 05:21:54;;;;;;;4.70;4.30;;;;;;;24.27;41.98;95670.66;5021201;28;20178;-77
2022/05/11 05:24:19;;;;;;;4.70;4.30;;;;;;;24.48;41.97;95679.97;5017998;28;20204;-77
2022/05/11 05:26:45;;;;;;;4.78;4.00;;;;;;;25.26;39.55;95681.34;5043920;28;20178;-76
2022/05/11 05:31:54;;;;;;;6.20;4.13;;;;;;;24.36;41.64;95679.13;5035158;28;20329;-77
2022/05/11 05:34:20;;;;;;;4.30;3.95;;;;;;;24.88;40.23;95682.66;5022544;28;20214;-77
2022/05/11 05:36:45;;;;;;;4.45;4.05;;;;;;;25.39;39.88;95678.41;5043233;28;20181;-78
2022/05/11 05:39:10;;;;;;;5.97;4.55;;;;;;;25.03;40.11;95683.03;5026935;28;20266;-78
2022/05/11 05:41:36;;;;;;;4.22;3.88;;;;;;;27.23;36.49;95688.25;5054794;28;20178;-76
2022/05/11 05:44:01;;;;;;;4.45;4.10;;;;;;;28.15;33.07;95683.88;5019139;28;20624;-77
2022/05/11 05:46:26;;;;;;;3.90;3.70;;;;;;;27.10;35.98;95683.28;5027299;28;20198;-77
2022/05/11 05:48:52;;;;;;;4.88;4.40;;;;;;;26.32;37.36;95678.94;5033553;28;20190;-77
2022/05/11 05:51:19;;;;;;;3.65;3.35;;;;;;;28.73;33.81;95680.31;5024660;28;20205;-80
2022/05/11 05:53:45;;;;;;;4.30;3.95;;;;;;;27.89;34.43;95680.97;5025298;28;20174;-78
2022/05/11 05:56:11;;;;;;;4.28;3.97;;;;;;;27.98;34.36;95686.66;5021226;28;20201;-77
2022/05/11 05:58:37;;;;;;;3.80;3.50;;;;;;;27.32;35.05;95692.09;5034872;28;20181;-78
2022/05/11 06:01:03;;;;;;;4.10;3.80;;;;;;;28.06;34.44;95694.19;5008789;28;20677;-77
2022/05/11 06:03:30;;;;;;;4.50;4.10;;;;;;;26.61;36.32;95687.69;5032222;28;20182;-77
2022/05/11 06:05:56;;;;;;;4.00;3.60;;;;;;;28.32;33.68;95686.44;5012210;28;20200;-77
2022/05/11 06:08:23;;;;;;;3.92;3.63;;;;;;;28.28;33.10;95691.47;5037801;28;20182;-76
2022/05/11 06:10:48;;;;;;;3.92;3.60;;;;;;;28.48;32.90;95685.50;5061264;28;20289;-77
2022/05/11 06:13:16;;;;;;;3.75;3.45;;;;;;;27.76;34.03;95688.59;5034625;28;20187;-77
2022/05/11 06:15:42;;;;;;;3.47;3.28;;;;;;;28.74;32.56;95691.81;5043210;28;20260;-77
2022/05/11 06:18:09;;;;;;;7.70;3.45;;;;;;;27.20;35.35;95688.75;5011443;28;20265;-78
2022/05/11 06:20:35;;;;;;;3.70;3.40;;;;;;;27.21;34.80;95695.72;5021301;28;20241;-77
2022/05/11 06:23:03;;;;;;;5.90;3.63;;;;;;;27.94;34.89;95689.03;5040179;28;20629;-78
2022/05/11 06:25:28;;;;;;;3.63;3.33;;;;;;;28.70;32.14;95691.50;5033209;28;20255;-78
2022/05/11 06:27:54;;;;;;;7.75;3.78;;;;;;;28.62;33.30;95686.63;5024479;28;20186;-77
2022/05/11 06:30:19;;;;;;;6.97;4.13;;;;;;;27.65;35.39;95700.97;5030220;28;20189;-76
2022/05/11 06:32:45;;;;;;;6.15;4.07;;;;;;;28.39;33.15;95690.50;5022193;28;20210;-78
2022/05/11 06:35:11;;;;;;;5.15;4.00;;;;;;;28.44;33.73;95689.72;5036959;28;20625;-78
2022/05/11 06:37:40;;;;;;;4.57;4.13;;;;;;;29.37;32.54;95684.63;5037780;28;20186;-77
2022/05/11 06:40:06;;;;;;;10.13;5.00;;;;;;;30.17;30.81;95683.22;5022412;28;20177;-78
2022/05/11 06:42:31;;;;;;;13.40;5.55;;;;;;;29.65;31.95;95687.94;5028008;28;20186;-77
2022/05/11 06:44:57;;;;;;;6.80;4.30;;;;;;;29.11;32.89;95688.28;5039163;28;20190;-78
2022/05/11 06:47:22;;;;;;;5.97;4.32;;;;;;;30.37;30.10;95686.97;5030515;28;20186;-77
2022/05/11 06:49:47;;;;;;;4.15;3.85;;;;;;;29.28;32.42;95687.00;5005370;28;20201;-77
2022/05/11 06:52:13;;;;;;;5.25;3.53;;;;;;;30.14;30.61;95683.75;5040003;28;20202;-77
2022/05/11 07:00:07;;;;;;;5.03;3.72;;;;;;;31.18;29.62;95686.81;5018208;28;20182;-78
2022/05/11 07:02:34;;;;;;;5.20;4.18;;;;;;;30.30;30.65;95681.06;5004335;28;20186;-77
2022/05/11 07:05:00;;;;;;;4.57;4.10;;;;;;;29.22;32.40;95681.91;5037366;28;20202;-77
2022/05/11 07:07:25;;;;;;;4.35;3.75;;;;;;;28.75;33.93;95678.16;5025310;28;20173;-78
2022/05/11 07:09:50;;;;;;;4.18;3.67;;;;;;;30.66;30.41;95680.00;5025439;28;20186;-77
2022/05/11 07:12:20;;;;;;;3.95;3.63;;;;;;;30.56;29.89;95677.28;5007130;28;20206;-79
2022/05/11 07:14:50;;;;;;;5.22;4.10;;;;;;;30.51;30.44;95677.31;5019231;28;20331;-78
2022/05/11 07:17:24;;;;;;;4.32;3.78;;;;;;;31.73;28.73;95684.97;5030989;28;20189;-79
2022/05/11 07:19:49;;;;;;;3.85;3.55;;;;;;;30.62;29.75;95675.41;5029692;28;20645;-77
2022/05/11 07:22:15;;;;;;;3.97;3.67;;;;;;;31.85;28.66;95684.66;5025196;28;20179;-77
2022/05/11 07:24:42;;;;;;;4.20;3.80;;;;;;;30.96;30.08;95673.75;5015472;28;20210;-79
2022/05/11 07:27:08;;;;;;;4.32;3.90;;;;;;;31.06;30.23;95672.13;5033888;28;20194;-78
2022/05/11 07:29:33;;;;;;;3.88;3.58;;;;;;;30.97;29.70;95675.34;5039497;28;20182;-76
2022/05/11 07:31:58;;;;;;;4.82;3.85;;;;;;;30.40;30.36;95668.50;5031615;28;20205;-77
2022/05/11 07:34:24;;;;;;;4.03;3.72;;;;;;;30.43;31.41;95669.81;5036821;28;20193;-77
2022/05/11 07:36:54;;;;;;;4.32;3.97;;;;;;;29.98;31.47;95665.25;5005798;28;20175;-77
2022/05/11 07:39:19;;;;;;;7.00;4.00;;;;;;;29.02;33.05;95664.72;5018477;28;20182;-77
2022/05/11 07:41:44;;;;;;;5.75;3.65;;;;;;;29.00;32.87;95669.50;5023812;28;20289;-78
2022/05/11 07:44:09;;;;;;;4.85;3.63;;;;;;;28.78;33.85;95669.63;5023712;28;20232;-77
2022/05/11 07:46:35;;;;;;;9.68;4.65;;;;;;;28.75;33.72;95669.34;5040517;28;20202;-77
2022/05/11 07:49:02;;;;;;;3.78;3.47;;;;;;;28.18;33.32;95668.16;5037076;28;20191;-77
2022/05/11 07:51:28;;;;;;;5.63;4.03;;;;;;;28.69;33.08;95659.69;5021079;28;20205;-78
2022/05/11 07:53:53;;;;;;;4.35;3.95;;;;;;;28.50;34.01;95660.13;5037214;28;20197;-78
2022/05/11 08:01:46;;;;;;;3.85;3.55;;;;;;;25.90;38.17;95658.06;5036042;28;20225;-77
2022/05/11 08:04:12;;;;;;;6.30;3.80;;;;;;;25.56;39.24;95655.34;5007078;28;20187;-77
2022/05/11 08:06:37;;;;;;;6.63;4.20;;;;;;;24.68;41.09;95645.06;5013608;28;20201;-77
2022/05/11 08:09:03;;;;;;;4.13;3.83;;;;;;;24.13;42.14;95642.75;5027804;28;20946;-78
2022/05/11 08:11:28;;;;;;;5.00;4.22;;;;;;;24.89;41.16;95644.44;5025863;28;20193;-77
2022/05/11 08:13:54;;;;;;;5.32;4.50;;;;;;;24.72;41.25;95643.56;5023044;28;20192;-77
2022/05/11 08:16:19;;;;;;;6.38;3.75;;;;;;;24.91;40.24;95655.63;5040516;28;20627;-77
2022/05/11 08:18:45;;;;;;;6.78;4.57;;;;;;;24.97;42.01;95654.69;5022807;28;20247;-78
2022/05/11 08:21:10;;;;;;;4.97;4.18;;;;;;;24.79;42.56;95652.19;5027247;28;20183;-77
2022/05/11 08:23:36;;;;;;;3.80;3.42;;;;;;;24.60;42.71;95635.59;5025430;28;20189;-77
2022/05/11 08:26:01;;;;;;;7.50;3.70;;;;;;;24.09;41.52;95636.28;5008486;28;20298;-78
2022/05/11 08:28:27;;;;;;;6.25;3.38;;;;;;;23.84;40.09;95625.88;5010809;28;20178;-78
2022/05/11 08:33:39;;;;;;;3.95;3.65;;;;;;;24.40;42.65;95632.53;5030391;28;20198;-78
2022/05/11 08:36:07;;;;;;;4.85;3.50;;;;;;;24.27;42.00;95628.22;5029963;28;20201;-77
2022/05/11 08:38:35;;;;;;;3.30;3.00;;;;;;;24.26;40.54;95621.28;5015117;28;20179;-77
2022/05/11 08:41:37;;;;;;;3.97;3.05;;;;;;;24.30;40.66;95627.78;5038955;28;20245;-78
2022/05/11 08:44:09;;;;;;;4.35;3.13;;;;;;;24.52;39.83;95625.34;5057009;28;20186;-77
2022/05/11 08:46:47;;;;;;;3.42;3.13;;;;;;;24.74;39.54;95621.06;5019379;28;20218;-77
2022/05/11 08:49:15;;;;;;;4.70;3.22;;;;;;;24.37;39.00;95623.16;5042929;28;20209;-77
2022/05/11 08:51:48;;;;;;;4.03;3.30;;;;;;;24.30;40.14;95627.78;5022633;28;20199;-77
2022/05/11 08:54:34;;;;;;;4.50;3.35;;;;;;;24.43;40.49;95622.25;5035235;28;20504;-77
2022/05/11 08:57:00;;;;;;;3.83;3.40;;;;;;;24.90;39.75;95624.81;5022634;28;20209;-77
2022/05/11 08:59:28;;;;;;;4.20;3.78;;;;;;;24.60;38.99;95625.00;5051380;28;20178;-78
2022/05/11 09:01:59;;;;;;;3.80;3.50;;;;;;;24.96;40.15;95621.22;5034718;28;20182;-77
2022/05/11 09:04:53;;;;;;;3.50;3.30;;;;;;;24.79;39.00;95621.13;5034529;28;20182;-76
2022/05/11 09:07:19;;;;;;;4.15;3.35;;;;;;;24.97;38.67;95614.84;5020982;28;20194;-77
2022/05/11 09:09:44;;;;;;;4.35;3.55;;;;;;;25.30;38.16;95614.19;5034013;28;20681;-77
2022/05/11 09:12:11;;;;;;;3.88;3.58;;;;;;;25.09;37.99;95617.50;5013859;28;20557;-77
2022/05/11 09:14:50;;;;;;;4.50;3.95;;;;;;;25.06;38.02;95620.63;5019901;28;20251;-77
2022/05/11 09:17:30;;;;;;;9.18;3.53;;;;;;;25.34;37.66;95615.31;5022595;28;20190;-77
2022/05/11 09:20:08;;;;;;;4.40;3.90;;;;;;;25.42;37.64;95603.50;5011068;28;20185;-77
2022/05/11 09:22:37;;;;;;;4.82;3.70;;;;;;;25.61;36.95;95610.19;5048342;28;20188;-75
2022/05/11 09:25:16;;;;;;;4.03;3.38;;;;;;;25.75;36.55;95608.09;5030550;28;20210;-77
2022/05/11 09:27:41;;;;;;;4.47;3.55;;;;;;;25.60;37.51;95611.25;5018406;28;20185;-77
2022/05/11 09:30:18;;;;;;;4.47;3.30;;;;;;;25.60;37.37;95611.25;5021739;28;20201;-77
2022/05/11 09:32:44;;;;;;;4.20;3.80;;;;;;;25.39;37.24;95609.31;5019735;28;20227;-77
2022/05/11 09:35:26;;;;;;;3.80;3.40;;;;;;;25.21;38.01;95598.88;5033407;28;20206;-78
2022/05/11 09:38:17;;;;;;;3.85;3.45;;;;;;;25.63;37.26;95607.31;5050209;28;20556;-78
2022/05/11 09:41:20;;;;;;;5.88;3.83;;;;;;;25.95;36.94;95596.94;5002843;28;20273;-77
2022/05/11 09:43:50;;;;;;;5.93;3.65;;;;;;;25.98;35.94;95599.16;5029905;28;20202;-77
2022/05/11 09:46:34;;;;;;;4.07;3.65;;;;;;;25.65;35.87;95608.69;5007006;28;20260;-77
2022/05/11 09:49:10;;;;;;;7.05;4.10;;;;;;;25.84;36.40;95609.28;5012915;28;20204;-78
2022/05/11 09:51:38;;;;;;;4.80;3.42;;;;;;;25.63;36.05;95610.00;5016170;28;20254;-78
2022/05/11 09:54:38;;;;;;;4.78;3.60;;;;;;;25.58;35.86;95607.22;5039479;28;20194;-77
2022/05/11 09:57:09;;;;;;;6.40;3.38;;;;;;;25.51;35.63;95596.75;5041316;28;20182;-77
2022/05/11 09:59:37;;;;;;;4.07;3.65;;;;;;;25.88;36.76;95597.09;5050330;28;20178;-77
2022/05/11 10:02:25;;;;;;;4.03;3.60;;;;;;;26.35;36.30;95598.63;5019030;28;20182;-77
2022/05/11 10:05:29;;;;;;;3.50;3.20;;;;;;;26.48;35.93;95595.63;5039648;28;20206;-78
2022/05/11 10:08:30;;;;;;;9.90;3.50;;;;;;;26.61;34.04;95589.16;5014595;28;20708;-78
2022/05/11 10:11:00;;;;;;;4.55;3.40;;;;;;;26.50;35.98;95594.34;5006453;28;20206;-76
2022/05/11 10:13:42;;;;;;;5.93;3.28;;;;;;;25.35;34.00;95584.22;5015504;28;20190;-78
2022/05/11 10:22:02;;;;;;;4.38;3.28;;;;;;;25.88;34.53;95585.66;4988809;28;20210;-78
2022/05/11 10:24:40;;;;;;;3.50;3.20;;;;;;;26.20;34.40;95580.56;5013336;28;20525;-78
2022/05/11 10:27:29;;;;;;;5.13;3.35;;;;;;;26.20;33.93;95581.38;5033651;28;20182;-78
2022/05/11 10:30:08;;;;;;;5.90;3.30;;;;;;;26.33;34.61;95577.56;5041482;28;20186;-78
2022/05/11 10:32:48;;;;;;;4.05;2.80;;;;;;;26.68;33.75;95584.41;5027881;28;20208;-78
2022/05/11 10:35:18;;;;;;;3.28;3.00;;;;;;;26.89;33.57;95578.28;5037277;28;20293;-78
2022/05/11 10:38:31;;;;;;;3.65;3.35;;;;;;;26.66;34.32;95583.88;5039947;28;20189;-78
2022/05/11 10:41:09;;;;;;;15.23;3.40;;;;;;;25.64;33.59;95564.53;4962105;28;20180;-78
2022/05/11 10:43:48;;;;;;;10.77;3.05;;;;;;;25.25;33.47;95570.75;4959761;28;20196;-78
2022/05/11 10:46:22;;;;;;;3.67;3.03;;;;;;;25.44;33.79;95558.88;4969812;28;20344;-76
2022/05/11 10:49:06;;;;;;;4.72;3.20;;;;;;;25.66;33.06;95569.59;4979924;28;20674;-78
2022/05/11 10:51:37;;;;;;;3.30;3.00;;;;;;;25.70;32.89;95557.44;4974352;28;20211;-78
2022/05/11 10:54:11;;;;;;;3.60;2.72;;;;;;;25.68;31.69;95535.59;4965422;28;20589;-78
2022/05/11 10:57:03;;;;;;;3.03;2.72;;;;;;;25.85;33.51;95554.25;4961843;28;20211;-77
2022/05/11 10:59:49;;;;;;;3.50;3.20;;;;;;;25.30;33.52;95558.38;4959005;28;20653;-78
2022/05/11 11:02:26;;;;;;;4.57;3.00;;;;;;;25.79;32.50;95544.56;4954347;28;20192;-77
2022/05/11 11:05:06;;;;;;;3.17;2.80;;;;;;;25.80;32.43;95554.19;4969441;28;20228;-78
2022/05/11 11:07:56;;;;;;;5.63;3.30;;;;;;;25.70;33.08;95539.66;4974072;28;20203;-78
2022/05/11 11:10:28;;;;;;;4.22;3.40;;;;;;;25.67;32.85;95544.63;4974691;28;20324;-78
2022/05/11 11:13:34;;;;;;;5.70;2.97;;;;;;;26.24;33.55;95531.94;4970428;28;20600;-79
2022/05/11 11:16:01;;;;;;;3.45;3.15;;;;;;;26.39;31.89;95528.69;5025516;28;20266;-79
2022/05/11 11:18:33;;;;;;;3.10;2.75;;;;;;;26.26;29.94;95527.16;5016887;28;20177;-76
2022/05/11 11:21:02;;;;;;;4.28;3.20;;;;;;;26.41;31.34;95531.88;5032469;28;20340;-78
2022/05/11 11:23:29;;;;;;;3.97;3.65;;;;;;;26.71;31.45;95522.69;5036624;28;20186;-78
2022/05/11 11:26:08;;;;;;;3.15;2.85;;;;;;;26.91;31.59;95527.41;5030948;28;20214;-78
2022/05/11 11:28:39;;;;;;;5.93;3.00;;;;;;;26.67;31.12;95524.22;5031838;28;20178;-78
2022/05/11 11:31:12;;;;;;;8.77;3.30;;;;;;;26.76;29.14;95518.19;5041596;28;20202;-77
2022/05/11 11:33:54;;;;;;;4.97;3.10;;;;;;;26.65;28.76;95519.13;5037162;28;20179;-78
2022/05/11 11:36:28;;;;;;;3.95;3.42;;;;;;;27.10;28.61;95523.38;5032731;28;20710;-77
2022/05/11 11:38:58;;;;;;;3.25;2.75;;;;;;;26.85;29.01;95507.91;5049522;28;20633;-78
2022/05/11 11:41:28;;;;;;;4.82;3.08;;;;;;;26.72;30.12;95511.78;5014547;28;20298;-77
2022/05/11 11:43:59;;;;;;;4.85;3.03;;;;;;;26.60;28.41;95508.44;5023338;28;20177;-78
2022/05/11 11:46:32;;;;;;;2.90;2.58;;;;;;;26.60;27.89;95508.44;5032956;28;20221;-76
2022/05/11 11:49:09;;;;;;;5.10;3.47;;;;;;;26.78;28.71;95510.78;5030740;28;20184;-77
2022/05/11 11:51:58;;;;;;;3.30;3.00;;;;;;;26.82;29.29;95503.09;5029567;28;20217;-77
2022/05/11 11:54:36;;;;;;;3.25;2.72;;;;;;;27.22;29.07;95489.38;5013561;28;20245;-78
2022/05/11 11:57:16;;;;;;;3.03;2.72;;;;;;;27.03;29.33;95486.28;5030545;28;20178;-77
2022/05/11 11:59:48;;;;;;;3.30;3.00;;;;;;;26.97;30.04;95486.44;5024747;28;20636;-76
2022/05/11 12:02:36;;;;;;;7.38;3.10;;;;;;;27.38;28.92;95477.78;5030483;28;20178;-77
2022/05/11 12:05:24;;;;;;;3.40;3.00;;;;;;;27.52;29.40;95490.69;5047204;28;20216;-77
2022/05/11 12:15:01;;;;;;;3.70;3.28;;;;;;;26.80;29.00;95481.22;5036261;28;20193;-78
2022/05/11 12:16:53;;;;;;;3.75;3.20;;;;;;;27.14;27.88;95479.19;5030514;28;20229;-78
2022/05/11 12:19:19;;;;;;;3.25;2.95;;;;;;;27.15;28.59;95472.78;5023260;28;20601;-77
2022/05/11 12:21:55;;;;;;;3.10;2.83;;;;;;;27.08;27.82;95478.31;5017155;28;20206;-77
2022/05/11 12:24:31;;;;;;;5.40;2.90;;;;;;;27.55;27.85;95466.16;5023826;28;20189;-77